Time;durP1;ratioP1;P1;durP2;ratioP2;P2;SDS_P1;SDS_P2;PMS_P1;PMS_P2;Temp;Humidity;BMP_temperature;BMP_pressure;BME280_temperature;BME280_humidity;BME280_pressure;Samples;Min_cycle;Max_cycle;Signal;HPM_P1;HPM_P2
2023/12/22 00:02:07;;;;;;;2.30;0.80;;;;;;;17.50;57.94;95762.88;10387675;28;20029;-29
2023/12/22 00:07:07;;;;;;;1.27;0.73;;;;;;;17.44;57.94;95770.53;10401316;28;20041;-29
2023/12/22 00:12:07;;;;;;;2.63;0.90;;;;;;;17.43;57.77;95784.91;10395700;28;20134;-30
2023/12/22 00:17:08;;;;;;;4.20;1.00;;;;;;;17.47;57.95;95805.91;10394373;28;20083;-30
2023/12/22 00:22:08;;;;;;;3.15;1.23;;;;;;;17.47;57.61;95780.63;10402516;28;20635;-30
2023/12/22 00:27:09;;;;;;;14.80;1.27;;;;;;;17.47;57.81;95776.41;10410567;28;20075;-29
2023/12/22 00:32:09;;;;;;;2.03;0.83;;;;;;;17.48;57.67;95788.19;10400870;28;20304;-29
2023/12/22 00:37:09;;;;;;;1.73;0.85;;;;;;;17.45;57.65;95800.03;10409137;28;20034;-30
2023/12/22 00:42:10;;;;;;;1.57;0.60;;;;;;;17.43;57.89;95796.69;10405441;28;20109;-30
2023/12/22 00:47:10;;;;;;;2.83;0.97;;;;;;;17.48;57.37;95807.63;10403753;28;20029;-29
2023/12/22 00:52:10;;;;;;;4.37;0.77;;;;;;;17.46;58.14;95824.47;10394383;28;20046;-29
2023/12/22 00:57:12;;;;;;;3.23;0.67;;;;;;;17.46;57.75;95824.47;10390897;28;20459;-29
2023/12/22 01:02:12;;;;;;;1.38;0.70;;;;;;;17.46;57.51;95849.78;10398182;28;20080;-30
2023/12/22 01:07:14;;;;;;;2.30;0.80;;;;;;;17.45;57.78;95822.81;10402956;28;20067;-30
2023/12/22 01:12:16;;;;;;;2.42;0.70;;;;;;;17.46;57.88;95839.66;10399659;28;20033;-29
2023/12/22 01:17:16;;;;;;;2.00;0.93;;;;;;;17.45;57.81;95832.94;10393989;28;20052;-29
2023/12/22 01:22:17;;;;;;;1.57;0.63;;;;;;;17.46;57.71;95827.88;10388384;28;20041;-30
2023/12/22 01:27:18;;;;;;;1.87;0.80;;;;;;;17.43;57.55;95832.13;10400201;28;20072;-30
2023/12/22 01:32:19;;;;;;;2.15;0.73;;;;;;;17.44;57.40;95822.00;10392060;28;20299;-30
2023/12/22 01:37:19;;;;;;;1.52;1.08;;;;;;;17.46;56.89;95832.06;10395852;28;20072;-29
2023/12/22 01:42:20;;;;;;;1.23;0.53;;;;;;;17.45;57.79;95865.81;10396342;28;20454;-29
2023/12/22 01:47:20;;;;;;;1.20;0.63;;;;;;;17.41;57.66;95865.00;10404403;28;20385;-29
2023/12/22 01:52:22;;;;;;;2.70;0.77;;;;;;;17.40;57.07;95870.94;10397800;28;20029;-30
2023/12/22 01:57:22;;;;;;;1.13;0.60;;;;;;;17.45;57.85;95875.94;10395359;28;20086;-30
2023/12/22 02:02:23;;;;;;;0.98;0.60;;;;;;;17.45;57.53;95868.34;10398268;28;20026;-29
2023/12/22 02:07:23;;;;;;;2.95;0.73;;;;;;;17.45;57.45;95893.66;10393798;28;20065;-30
2023/12/22 02:12:23;;;;;;;2.10;1.13;;;;;;;17.43;57.61;95875.97;10395127;28;20051;-29
2023/12/22 02:17:29;;;;;;;1.33;1.00;;;;;;;17.45;57.85;95853.19;10402920;28;20392;-30
2023/12/22 02:22:30;;;;;;;0.85;0.43;;;;;;;17.44;57.50;95851.50;10391452;28;20746;-29
2023/12/22 02:27:38;;;;;;;1.83;0.67;;;;;;;17.43;57.72;95875.13;10401201;28;20040;-30
2023/12/22 02:32:41;;;;;;;1.52;0.50;;;;;;;17.43;57.39;95890.31;10400208;28;20465;-30
2023/12/22 02:37:45;;;;;;;2.03;0.75;;;;;;;17.43;57.56;95880.19;10389249;28;20654;-29
2023/12/22 02:42:46;;;;;;;1.75;0.70;;;;;;;17.43;57.46;95898.75;10397929;28;20033;-30
2023/12/22 02:47:46;;;;;;;1.42;0.55;;;;;;;17.44;57.52;95932.47;10398721;28;20373;-29
2023/12/22 02:52:47;;;;;;;0.95;0.85;;;;;;;17.41;57.38;95933.34;10393649;28;20026;-30
2023/12/22 02:57:47;;;;;;;2.27;0.60;;;;;;;17.42;57.58;95924.06;10388700;28;20038;-31
2023/12/22 03:02:47;;;;;;;1.50;0.70;;;;;;;17.40;57.08;95929.13;10397214;28;20041;-29
2023/12/22 03:07:48;;;;;;;1.33;0.60;;;;;;;17.42;57.10;95913.94;10393271;28;20522;-29
2023/12/22 03:12:48;;;;;;;1.87;0.97;;;;;;;17.43;57.14;95930.81;10398716;28;20501;-30
2023/12/22 03:17:48;;;;;;;1.03;0.47;;;;;;;17.43;57.34;95920.69;10389398;28;20668;-30
2023/12/22 03:22:49;;;;;;;2.23;0.70;;;;;;;17.43;56.97;95936.72;10397142;28;20707;-29
2023/12/22 03:27:49;;;;;;;2.33;0.53;;;;;;;17.41;57.49;95932.50;10398097;28;20055;-29
2023/12/22 03:32:50;;;;;;;0.97;0.40;;;;;;;17.42;57.28;95929.94;10392442;28;20299;-30
2023/12/22 03:37:50;;;;;;;1.73;0.60;;;;;;;17.43;57.13;95928.25;10393144;28;20037;-30
2023/12/22 03:42:50;;;;;;;2.30;0.77;;;;;;;17.41;57.65;95940.09;10398318;28;20288;-29
2023/12/22 03:47:51;;;;;;;1.63;0.50;;;;;;;17.41;57.00;95942.63;10400540;28;20056;-29
2023/12/22 03:52:51;;;;;;;0.83;0.70;;;;;;;17.42;57.36;95946.84;10397831;28;20477;-29
2023/12/22 03:57:51;;;;;;;4.13;0.60;;;;;;;17.40;57.59;95929.13;10408670;28;20561;-29
2023/12/22 04:02:52;;;;;;;1.00;0.47;;;;;;;17.42;57.10;95926.59;10406532;28;20284;-29
2023/12/22 04:07:52;;;;;;;1.20;0.57;;;;;;;17.41;57.02;95923.22;10397008;28;20033;-29
2023/12/22 04:12:53;;;;;;;1.23;0.57;;;;;;;17.41;57.94;95942.63;10406387;28;20036;-29
2023/12/22 04:17:53;;;;;;;1.37;0.60;;;;;;;17.38;57.35;95955.28;10396806;28;20033;-30
2023/12/22 04:22:53;;;;;;;1.00;0.60;;;;;;;17.41;57.20;95978.88;10404831;28;20029;-29
2023/12/22 04:27:54;;;;;;;3.27;1.23;;;;;;;17.41;57.66;95967.94;10403755;28;20037;-29
2023/12/22 04:32:56;;;;;;;2.33;0.53;;;;;;;17.41;57.48;95967.94;10404935;28;20045;-31
2023/12/22 04:37:56;;;;;;;3.03;0.60;;;;;;;17.37;57.37;95966.25;10402390;28;20782;-29
2023/12/22 04:42:56;;;;;;;1.98;0.47;;;;;;;17.40;57.43;95951.06;10397273;28;20029;-29
2023/12/22 04:47:57;;;;;;;1.47;0.40;;;;;;;17.22;57.48;95913.22;10397009;28;20041;-28
2023/12/22 04:52:57;;;;;;;1.47;0.50;;;;;;;17.34;57.45;95931.66;10405217;28;20087;-29
2023/12/22 04:57:57;;;;;;;2.27;0.70;;;;;;;17.40;57.03;95946.84;10405054;28;20439;-30
2023/12/22 05:02:58;;;;;;;1.07;0.67;;;;;;;17.44;56.84;95937.53;10400943;28;20606;-29
2023/12/22 05:07:58;;;;;;;2.77;1.40;;;;;;;17.44;57.01;95945.13;10402585;28;20280;-29
2023/12/22 05:12:59;;;;;;;3.20;0.68;;;;;;;17.48;56.95;95960.25;10402951;28;20038;-29
2023/12/22 05:17:59;;;;;;;1.27;0.60;;;;;;;17.46;57.12;95966.19;10400060;28;20065;-28
2023/12/22 05:23:00;;;;;;;1.87;0.60;;;;;;;17.46;56.92;95961.97;10405517;28;20036;-29
2023/12/22 05:28:00;;;;;;;1.43;0.70;;;;;;;17.49;56.58;95956.06;10422065;28;20479;-29
2023/12/22 05:33:00;;;;;;;1.87;0.80;;;;;;;17.49;57.16;95951.00;10408741;28;20131;-29
2023/12/22 05:38:01;;;;;;;0.90;0.47;;;;;;;17.46;56.79;95966.19;10400304;28;20424;-29
2023/12/22 05:43:01;;;;;;;0.70;0.40;;;;;;;17.46;56.88;95981.38;10403308;28;20040;-29
2023/12/22 05:48:01;;;;;;;2.50;0.80;;;;;;;17.39;56.74;95990.69;10406229;28;20041;-29
2023/12/22 05:53:02;;;;;;;3.63;0.80;;;;;;;17.45;56.42;95994.88;10408724;28;20037;-29
2023/12/22 05:58:02;;;;;;;3.90;0.82;;;;;;;17.45;55.95;95997.41;10407930;28;20034;-29
2023/12/22 06:03:03;;;;;;;3.40;0.63;;;;;;;17.50;56.42;96003.28;10400486;28;20045;-29
2023/12/22 06:08:04;;;;;;;4.00;0.98;;;;;;;17.51;56.04;96000.72;10401651;28;20045;-30
2023/12/22 06:13:05;;;;;;;3.20;0.80;;;;;;;17.51;56.66;96015.09;10398254;28;20033;-29
2023/12/22 06:18:05;;;;;;;16.85;3.13;;;;;;;17.48;56.22;96000.75;10400897;28;20048;-29
2023/12/22 06:23:06;;;;;;;5.60;1.67;;;;;;;17.45;57.13;96008.38;10404088;28;20512;-30
2023/12/22 06:28:06;;;;;;;4.40;1.40;;;;;;;17.31;54.09;96016.91;10399357;28;20451;-29
2023/12/22 06:33:07;;;;;;;7.40;1.83;;;;;;;17.39;55.86;96012.63;10397614;28;20295;-29
2023/12/22 06:38:08;;;;;;;7.97;1.50;;;;;;;17.38;56.55;96004.22;10400853;28;20042;-29
2023/12/22 06:43:08;;;;;;;11.60;2.33;;;;;;;17.38;56.77;96019.38;10398201;28;20041;-29
2023/12/22 06:48:11;;;;;;;7.23;2.20;;;;;;;17.31;57.01;95986.53;10390118;28;20041;-30
2023/12/22 06:53:12;;;;;;;5.97;1.70;;;;;;;17.41;55.79;96018.53;10398443;28;20738;-30
2023/12/22 06:58:12;;;;;;;16.43;2.87;;;;;;;17.48;55.63;96037.88;10396283;28;20049;-29
2023/12/22 07:03:12;;;;;;;19.20;2.80;;;;;;;17.44;56.24;96034.53;10399921;28;20048;-30
2023/12/22 07:08:13;;;;;;;23.60;3.23;;;;;;;17.45;56.31;96053.94;10398803;28;20064;-28
2023/12/22 07:13:13;;;;;;;17.90;2.90;;;;;;;17.39;56.05;96038.78;10394727;28;20029;-29
2023/12/22 07:18:13;;;;;;;21.67;4.77;;;;;;;17.41;56.86;96046.38;10399880;28;20057;-27
2023/12/22 07:23:14;;;;;;;21.73;5.07;;;;;;;17.44;56.25;96043.81;10400020;28;20033;-29
2023/12/22 07:28:15;;;;;;;15.83;2.93;;;;;;;17.42;56.69;96041.28;10398880;28;20295;-30
2023/12/22 07:33:15;;;;;;;19.98;3.63;;;;;;;17.39;55.88;96066.59;10403366;28;20060;-29
2023/12/22 07:38:16;;;;;;;16.83;3.50;;;;;;;17.50;55.60;96072.44;10409409;28;20063;-29
2023/12/22 07:43:16;;;;;;;17.67;2.50;;;;;;;17.52;57.19;96072.44;10405319;28;20044;-31
2023/12/22 07:48:17;;;;;;;15.00;3.60;;;;;;;17.51;58.15;96101.13;10407907;28;20036;-29
2023/12/22 07:53:17;;;;;;;18.27;3.58;;;;;;;17.44;57.59;96086.81;10407032;28;20407;-29
2023/12/22 07:58:20;;;;;;;10.60;2.23;;;;;;;17.35;57.52;96086.84;10407582;28;20030;-30
2023/12/22 08:03:20;;;;;;;14.15;2.42;;;;;;;17.37;57.33;96082.63;10405207;28;20503;-31
2023/12/22 08:08:21;;;;;;;6.97;1.80;;;;;;;17.39;56.86;96076.72;10404431;28;20045;-29
2023/12/22 08:13:21;;;;;;;6.20;1.70;;;;;;;17.37;57.36;96083.50;10403879;28;20436;-30
2023/12/22 08:18:21;;;;;;;10.10;1.67;;;;;;;17.35;55.56;96069.13;10399764;28;20052;-29
2023/12/22 08:23:22;;;;;;;12.07;1.83;;;;;;;17.35;57.04;96095.28;10404461;28;20033;-29
2023/12/22 08:28:22;;;;;;;12.23;1.97;;;;;;;17.36;57.12;96094.47;10403864;28;20047;-29
2023/12/22 08:33:23;;;;;;;10.73;1.73;;;;;;;17.37;56.96;96082.63;10400924;28;20042;-30
2023/12/22 08:38:23;;;;;;;3.90;1.90;;;;;;;17.39;56.85;96091.06;10408631;28;20035;-30
2023/12/22 08:43:24;;;;;;;3.53;1.07;;;;;;;17.38;57.09;96095.28;10406942;28;20476;-30
2023/12/22 08:48:24;;;;;;;6.75;1.38;;;;;;;17.37;57.09;96105.41;10401994;28;20292;-29
2023/12/22 08:53:25;;;;;;;9.83;1.30;;;;;;;17.37;57.24;96108.78;10404770;28;20533;-28
2023/12/22 08:58:26;;;;;;;5.40;1.13;;;;;;;17.35;56.69;96104.56;10402909;28;20048;-31
2023/12/22 09:03:28;;;;;;;5.00;1.10;;;;;;;17.36;56.89;96147.59;10405497;28;20033;-30
2023/12/22 09:08:28;;;;;;;5.78;1.38;;;;;;;17.33;57.32;96137.44;10405160;28;20561;-31
2023/12/22 09:13:29;;;;;;;6.83;1.50;;;;;;;17.37;56.78;96148.44;10404366;28;20037;-30
2023/12/22 09:18:30;;;;;;;2.13;1.10;;;;;;;17.33;57.03;96134.09;10398995;28;20037;-30
2023/12/22 09:23:31;;;;;;;4.00;1.30;;;;;;;17.24;57.18;96112.19;10403660;28;20438;-30
2023/12/22 09:28:31;;;;;;;5.88;1.75;;;;;;;17.31;56.79;96106.25;10404761;28;20048;-31
2023/12/22 09:33:32;;;;;;;4.87;1.07;;;;;;;17.32;57.23;96099.53;10398467;28;20049;-29
2023/12/22 09:38:32;;;;;;;2.53;0.98;;;;;;;17.32;56.81;96113.00;10405417;28;20029;-29
2023/12/22 09:43:36;;;;;;;2.40;1.10;;;;;;;17.27;56.98;96101.22;10402022;28;20044;-30
2023/12/22 09:48:39;;;;;;;4.32;1.02;;;;;;;17.28;56.86;96100.38;10401025;28;20383;-29
2023/12/22 09:53:41;;;;;;;4.57;1.15;;;;;;;17.29;56.73;96091.94;10401930;28;20137;-30
2023/12/22 09:58:41;;;;;;;1.90;0.80;;;;;;;17.28;57.15;96090.25;10405092;28;20037;-30
2023/12/22 10:03:43;;;;;;;2.67;0.88;;;;;;;17.28;57.00;96102.91;10403245;28;20033;-31
2023/12/22 10:08:47;;;;;;;3.42;0.57;;;;;;;17.30;56.92;96091.06;10403473;28;20059;-29
2023/12/22 10:13:50;;;;;;;2.10;1.00;;;;;;;17.31;57.00;96077.59;10404648;28;20034;-30
2023/12/22 10:18:51;;;;;;;3.85;1.00;;;;;;;17.27;56.64;96083.50;10396962;28;20048;-30
2023/12/22 10:23:51;;;;;;;2.90;0.93;;;;;;;17.24;55.00;96084.38;10403629;28;20496;-30
2023/12/22 10:28:52;;;;;;;11.13;1.50;;;;;;;17.25;56.28;96092.81;10398724;28;20095;-30
2023/12/22 10:33:53;;;;;;;7.03;1.38;;;;;;;17.33;55.97;96060.72;10403918;28;20036;-30
2023/12/22 10:38:53;;;;;;;5.28;1.30;;;;;;;17.36;56.24;96060.72;10396556;28;20082;-30
2023/12/22 10:43:54;;;;;;;3.23;1.00;;;;;;;17.32;56.04;96043.88;10400927;28;20025;-30
2023/12/22 10:48:54;;;;;;;6.35;1.02;;;;;;;17.30;54.57;96041.34;10403072;28;20044;-30
2023/12/22 10:53:54;;;;;;;9.63;1.07;;;;;;;17.37;55.05;96039.63;10403019;28;20128;-30
2023/12/22 10:58:56;;;;;;;4.63;1.17;;;;;;;17.40;55.03;96027.81;10402151;28;20295;-29
2023/12/22 11:04:01;;;;;;;5.07;2.50;;;;;;;17.40;55.13;96032.88;10403345;28;20116;-31
2023/12/22 11:09:09;;;;;;;5.90;1.73;;;;;;;17.40;55.60;96026.97;10412113;28;20037;-30
2023/12/22 11:14:09;;;;;;;3.78;1.10;;;;;;;17.40;55.72;96011.78;10411507;28;20099;-29
2023/12/22 11:19:11;;;;;;;1.50;0.75;;;;;;;17.38;55.38;95994.09;10405198;28;20048;-32
2023/12/22 11:24:14;;;;;;;3.00;1.08;;;;;;;17.40;55.46;95996.63;10403926;28;20128;-29
2023/12/22 11:29:15;;;;;;;4.15;1.17;;;;;;;17.42;55.19;95982.25;10404714;28;20101;-30
2023/12/22 11:34:18;;;;;;;3.42;1.38;;;;;;;17.40;55.27;95986.50;10400552;28;20033;-30
2023/12/22 11:39:18;;;;;;;6.53;1.60;;;;;;;17.40;55.53;95971.31;10408708;28;20045;-30
2023/12/22 11:44:19;;;;;;;5.50;2.17;;;;;;;17.40;55.51;95959.50;10406534;28;20044;-29
2023/12/22 11:49:19;;;;;;;5.82;2.33;;;;;;;17.50;54.87;95947.59;10405509;28;20673;-31
2023/12/22 11:54:49;;;;;;;5.17;1.60;;;;;;;17.51;54.93;95945.03;10404456;28;20038;-31
2023/12/22 11:59:50;;;;;;;4.53;1.70;;;;;;;17.53;54.83;95938.31;10394811;28;20296;-30
2023/12/22 12:04:51;;;;;;;27.95;4.65;;;;;;;17.55;55.39;95935.75;10409080;28;20116;-30
2023/12/22 12:09:51;;;;;;;41.27;5.30;;;;;;;17.51;56.10;95921.44;10400816;28;20033;-30
2023/12/22 12:14:57;;;;;;;34.43;6.97;;;;;;;17.56;55.74;95912.97;10399122;28;20516;-29
2023/12/22 12:19:58;;;;;;;36.05;5.43;;;;;;;17.58;56.33;95920.53;10405012;28;20291;-29
2023/12/22 12:24:58;;;;;;;31.42;5.13;;;;;;;17.59;55.12;95909.56;10401043;28;20029;-28
2023/12/22 12:30:06;;;;;;;20.90;4.18;;;;;;;17.58;55.38;95905.38;10404745;28;20112;-30
2023/12/22 12:35:08;;;;;;;26.48;4.63;;;;;;;17.63;56.33;95913.72;10405947;28;20025;-29
2023/12/22 12:40:10;;;;;;;19.20;3.90;;;;;;;17.65;55.39;95900.22;10394161;28;20095;-30
2023/12/22 12:45:11;;;;;;;17.95;3.53;;;;;;;17.66;54.82;95890.94;10408543;28;20084;-30
2023/12/22 12:50:11;;;;;;;17.87;4.27;;;;;;;17.65;55.48;95894.31;10406312;28;20133;-30
2023/12/22 12:55:11;;;;;;;19.30;3.30;;;;;;;17.71;55.42;95886.66;10406596;28;20103;-30
2023/12/22 13:00:13;;;;;;;15.10;3.13;;;;;;;17.69;56.07;95879.09;10396961;28;20033;-29
2023/12/22 13:05:22;;;;;;;19.33;3.88;;;;;;;17.73;56.45;95882.44;10396011;28;20284;-30
2023/12/22 13:10:29;;;;;;;12.73;4.03;;;;;;;17.76;57.07;95890.00;10405135;28;20673;-30
2023/12/22 13:15:30;;;;;;;16.50;2.63;;;;;;;17.72;57.14;95895.91;10399898;28;20708;-30
2023/12/22 13:20:31;;;;;;;16.15;3.78;;;;;;;17.74;57.32;95891.69;10401946;28;20022;-29
2023/12/22 13:25:40;;;;;;;11.65;2.83;;;;;;;17.75;56.61;95893.38;10400970;28;20033;-30
2023/12/22 13:30:44;;;;;;;17.63;2.92;;;;;;;17.74;56.48;95895.06;10400063;28;20033;-30
2023/12/22 13:35:46;;;;;;;11.75;2.85;;;;;;;17.75;56.16;95901.78;10404754;28;20045;-29
2023/12/22 13:40:47;;;;;;;11.35;3.65;;;;;;;17.77;55.90;95914.44;10404417;28;20033;-30
2023/12/22 13:45:53;;;;;;;18.65;5.65;;;;;;;17.67;56.32;95895.16;10405660;28;20415;-30
2023/12/22 13:50:58;;;;;;;14.05;4.10;;;;;;;17.76;56.36;95938.09;10404174;28;20041;-30
2023/12/22 13:55:59;;;;;;;14.18;3.30;;;;;;;17.74;56.78;95938.09;10396835;28;20035;-31
2023/12/22 14:01:14;;;;;;;15.18;3.50;;;;;;;17.71;57.88;95922.94;10398345;28;20033;-30
2023/12/22 14:06:14;;;;;;;19.27;5.90;;;;;;;17.73;58.64;95910.28;10400475;28;20116;-29
2023/12/22 14:11:15;;;;;;;11.53;3.63;;;;;;;17.69;58.61;95904.41;10389085;28;20037;-29
2023/12/22 14:16:16;;;;;;;14.68;3.95;;;;;;;17.72;58.17;95896.78;10398589;28;20451;-30
2023/12/22 14:21:17;;;;;;;10.68;2.75;;;;;;;17.73;58.02;95911.09;10398874;28;20072;-27
2023/12/22 14:26:18;;;;;;;11.20;2.80;;;;;;;17.76;58.53;95912.78;10392436;28;20041;-29
2023/12/22 14:31:18;;;;;;;13.80;2.20;;;;;;;17.79;59.42;95897.53;10399902;28;20395;-30
2023/12/22 14:36:19;;;;;;;9.85;2.33;;;;;;;17.88;59.36;95945.56;10404350;28;20307;-30
2023/12/22 14:41:19;;;;;;;12.70;2.73;;;;;;;17.94;59.47;95930.31;10402426;28;20381;-30
2023/12/22 14:46:19;;;;;;;17.07;2.90;;;;;;;17.99;59.30;95944.59;10403053;28;20044;-31
2023/12/22 14:51:20;;;;;;;7.73;1.97;;;;;;;18.03;59.42;95961.44;10402993;28;20041;-30
2023/12/22 14:56:20;;;;;;;13.53;2.23;;;;;;;18.05;59.23;95953.81;10395461;28;20041;-30
2023/12/22 15:01:20;;;;;;;11.93;2.43;;;;;;;18.09;59.33;95951.22;10402417;28;20121;-30
2023/12/22 15:06:21;;;;;;;12.10;2.80;;;;;;;18.10;59.34;95968.13;10400629;28;20041;-30
2023/12/22 15:11:22;;;;;;;10.77;1.80;;;;;;;18.14;58.89;95966.38;10394662;28;20444;-30
2023/12/22 15:16:22;;;;;;;11.23;2.15;;;;;;;18.18;58.95;95975.63;10402627;28;20419;-31
2023/12/22 15:21:23;;;;;;;9.20;1.93;;;;;;;18.19;58.98;95968.03;10403627;28;20096;-30
2023/12/22 15:26:27;;;;;;;10.85;2.35;;;;;;;18.23;58.62;95992.47;10401785;28;20041;-32
2023/12/22 15:31:29;;;;;;;9.55;2.13;;;;;;;18.21;58.50;95980.66;10397533;28;20068;-30
2023/12/22 15:36:30;;;;;;;8.77;2.10;;;;;;;18.26;58.69;95999.19;10403351;28;20051;-30
2023/12/22 15:41:31;;;;;;;8.30;2.30;;;;;;;18.22;58.18;95987.41;10397569;28;20035;-30
2023/12/22 15:46:31;;;;;;;4.60;2.08;;;;;;;18.27;58.17;96011.88;10402305;28;20037;-31
2023/12/22 15:51:31;;;;;;;4.93;1.37;;;;;;;18.33;57.87;96016.88;10408836;28;20134;-29
2023/12/22 15:56:32;;;;;;;7.53;2.20;;;;;;;18.29;57.47;96039.69;10407346;28;20038;-30
2023/12/22 16:01:32;;;;;;;11.32;1.70;;;;;;;18.22;57.33;96017.81;10404724;28;20291;-32
2023/12/22 16:06:32;;;;;;;5.07;1.30;;;;;;;18.14;57.56;96014.50;10402790;28;20047;-30
2023/12/22 16:11:33;;;;;;;4.90;2.10;;;;;;;18.08;57.38;96017.13;10407502;28;20033;-30
2023/12/22 16:16:33;;;;;;;6.20;1.85;;;;;;;18.05;57.63;96017.13;10408438;28;20045;-30
2023/12/22 16:21:40;;;;;;;7.17;1.43;;;;;;;17.96;58.00;96014.69;10404680;28;20476;-32
2023/12/22 16:26:40;;;;;;;6.43;2.38;;;;;;;17.96;58.19;96028.19;10419167;28;20041;-30
2023/12/22 16:31:41;;;;;;;10.30;2.10;;;;;;;17.97;58.05;96023.97;10426317;28;20038;-30
2023/12/22 16:36:45;;;;;;;5.15;1.92;;;;;;;17.91;58.51;96039.22;10423084;28;20029;-30
2023/12/22 16:41:47;;;;;;;4.28;2.20;;;;;;;17.88;57.68;96039.25;10426808;28;20021;-29
2023/12/22 16:46:47;;;;;;;8.30;1.63;;;;;;;17.95;58.08;96053.53;10413535;28;20131;-30
2023/12/22 16:51:49;;;;;;;10.70;1.58;;;;;;;18.01;57.31;96068.69;10420946;28;20601;-29
2023/12/22 16:56:50;;;;;;;5.28;2.03;;;;;;;17.97;57.70;96062.81;10407919;28;20030;-30
2023/12/22 17:01:50;;;;;;;4.93;1.93;;;;;;;17.98;57.57;96061.13;10405372;28;20029;-30
2023/12/22 17:06:52;;;;;;;5.03;1.07;;;;;;;17.99;57.67;96061.09;10401866;28;20420;-30
2023/12/22 17:11:52;;;;;;;6.55;0.90;;;;;;;17.98;57.14;96071.25;10399861;28;20034;-31
2023/12/22 17:16:53;;;;;;;6.67;1.33;;;;;;;17.96;57.37;96071.25;10400179;28;20041;-31
2023/12/22 17:21:53;;;;;;;4.93;1.20;;;;;;;17.95;57.17;96086.47;10407233;28;20033;-30
2023/12/22 17:26:54;;;;;;;5.13;1.17;;;;;;;17.95;57.01;96089.84;10405966;28;20110;-30
2023/12/22 17:31:58;;;;;;;3.47;1.10;;;;;;;17.97;57.05;96103.31;10400301;28;20311;-30
2023/12/22 17:36:58;;;;;;;2.90;0.93;;;;;;;17.95;56.81;96106.72;10407040;28;20060;-31
2023/12/22 17:41:58;;;;;;;4.73;1.03;;;;;;;17.97;56.88;96132.84;10401060;28;20025;-30
2023/12/22 17:47:02;;;;;;;3.67;0.80;;;;;;;17.99;56.66;96137.06;10398371;28;20037;-31
2023/12/22 17:52:04;;;;;;;3.53;1.02;;;;;;;17.97;56.66;96127.78;10405938;28;20034;-32
2023/12/22 17:57:05;;;;;;;6.25;1.35;;;;;;;17.89;56.82;96137.13;10398443;28;20407;-30
2023/12/22 18:02:06;;;;;;;2.80;1.15;;;;;;;17.95;56.70;96144.69;10397665;28;20042;-30
2023/12/22 18:07:06;;;;;;;4.18;0.90;;;;;;;17.93;56.63;96151.47;10405488;28;20042;-30
2023/12/22 18:12:06;;;;;;;3.10;1.00;;;;;;;17.96;56.47;96161.56;10399358;28;20049;-29
2023/12/22 18:17:07;;;;;;;1.08;0.65;;;;;;;17.96;56.58;96162.44;10396644;28;20303;-30
2023/12/22 18:22:07;;;;;;;2.20;1.00;;;;;;;17.99;56.20;96179.31;10391098;28;20030;-30
2023/12/22 18:27:08;;;;;;;4.23;1.03;;;;;;;17.99;56.19;96166.63;10399656;28;20091;-31
2023/12/22 18:32:08;;;;;;;1.60;0.68;;;;;;;17.99;56.25;96185.19;10403316;28;20311;-29
2023/12/22 18:37:09;;;;;;;2.37;0.87;;;;;;;17.98;56.11;96185.22;10401050;28;20057;-30
2023/12/22 18:42:09;;;;;;;3.33;0.70;;;;;;;17.97;56.11;96184.38;10401075;28;20048;-29
2023/12/22 18:47:09;;;;;;;4.17;1.00;;;;;;;18.00;55.99;96198.72;10403186;28;20115;-30
2023/12/22 18:52:10;;;;;;;2.77;1.03;;;;;;;17.91;55.85;96173.44;10404195;28;20071;-31
2023/12/22 18:57:10;;;;;;;2.33;0.63;;;;;;;17.96;55.59;96197.88;10397932;28;20455;-31
2023/12/22 19:02:10;;;;;;;3.17;0.80;;;;;;;17.96;55.91;96208.00;10400660;28;20032;-30
2023/12/22 19:07:11;;;;;;;7.82;1.10;;;;;;;17.85;56.61;96227.50;10400690;28;20040;-31
2023/12/22 19:12:11;;;;;;;6.10;1.27;;;;;;;17.75;57.29;96235.97;10399844;28;20095;-30
2023/12/22 19:17:12;;;;;;;2.43;0.93;;;;;;;17.74;56.82;96253.72;10393255;28;20037;-30
2023/12/22 19:22:12;;;;;;;6.32;1.30;;;;;;;17.82;56.67;96274.78;10393262;28;20120;-30
2023/12/22 19:27:12;;;;;;;8.87;1.97;;;;;;;17.77;57.06;96286.63;10402792;28;20068;-30
2023/12/22 19:32:13;;;;;;;5.33;1.17;;;;;;;17.78;56.93;96290.81;10406265;28;20045;-29
2023/12/22 19:37:17;;;;;;;2.63;1.10;;;;;;;17.79;56.81;96290.81;10403261;28;20045;-30
2023/12/22 19:42:18;;;;;;;5.63;1.58;;;;;;;17.71;57.22;96276.50;10398341;28;20033;-30
2023/12/22 19:47:18;;;;;;;6.27;2.50;;;;;;;17.76;57.56;96297.59;10405981;28;20034;-29
2023/12/22 19:52:19;;;;;;;6.30;2.47;;;;;;;17.77;57.30;96307.72;10407011;28;20124;-30
2023/12/22 19:57:19;;;;;;;4.68;2.55;;;;;;;17.76;57.63;96326.25;10403249;28;20041;-30
2023/12/22 20:02:19;;;;;;;4.87;2.37;;;;;;;17.79;57.46;96335.53;10401773;28;20050;-30
2023/12/22 20:07:20;;;;;;;4.83;2.80;;;;;;;17.77;57.57;96357.50;10402449;28;20124;-30
2023/12/22 20:12:21;;;;;;;4.97;2.83;;;;;;;17.77;57.61;96337.25;10401656;28;20880;-30
2023/12/22 20:17:21;;;;;;;13.80;5.20;;;;;;;17.77;57.41;96350.75;10403398;28;20060;-31
2023/12/22 20:22:22;;;;;;;20.33;11.70;;;;;;;17.78;57.97;96361.72;10401722;28;20511;-30
2023/12/22 20:27:22;;;;;;;23.17;12.23;;;;;;;17.71;58.10;96345.72;10401922;28;20163;-30
2023/12/22 20:32:22;;;;;;;25.23;12.10;;;;;;;17.76;58.50;96365.94;10404107;28;20049;-30
2023/12/22 20:37:23;;;;;;;24.63;12.57;;;;;;;17.76;58.05;96360.88;10404380;28;20398;-33
2023/12/22 20:42:23;;;;;;;24.87;12.33;;;;;;;17.76;58.18;96363.41;10401485;28;20519;-30
2023/12/22 20:47:23;;;;;;;26.63;14.20;;;;;;;17.75;58.11;96371.88;10401521;28;20559;-30
2023/12/22 20:52:24;;;;;;;28.53;12.53;;;;;;;17.75;58.15;96371.88;10402803;28;20087;-30
2023/12/22 20:57:24;;;;;;;24.10;11.00;;;;;;;17.74;58.13;96368.47;10401920;28;20307;-29
2023/12/22 21:02:25;;;;;;;24.73;11.27;;;;;;;17.68;58.36;96373.56;10403057;28;20048;-30
2023/12/22 21:07:25;;;;;;;29.35;10.75;;;;;;;17.74;57.96;96377.78;10399142;28;20037;-30
2023/12/22 21:12:26;;;;;;;21.20;11.07;;;;;;;17.72;57.68;96374.38;10400427;28;20034;-29
2023/12/22 21:17:26;;;;;;;23.90;10.20;;;;;;;17.73;57.95;96394.66;10400343;28;20029;-30
2023/12/22 21:22:26;;;;;;;21.93;10.80;;;;;;;17.74;58.11;96395.50;10405403;28;20026;-30
2023/12/22 21:27:27;;;;;;;19.40;10.17;;;;;;;17.72;57.65;96395.50;10401380;28;20045;-31
2023/12/22 21:32:27;;;;;;;23.88;11.60;;;;;;;17.73;58.52;96406.47;10402476;28;20113;-29
2023/12/22 21:37:28;;;;;;;21.50;10.85;;;;;;;17.69;58.62;96400.56;10402941;28;20048;-29
2023/12/22 21:42:28;;;;;;;18.67;10.00;;;;;;;17.64;58.33;96381.16;10400385;28;20079;-29
2023/12/22 21:47:29;;;;;;;19.75;9.40;;;;;;;17.71;58.10;96392.97;10393403;28;20448;-30
2023/12/22 21:52:29;;;;;;;23.17;8.87;;;;;;;17.72;58.19;96394.63;10399865;28;20041;-31
2023/12/22 21:57:29;;;;;;;18.30;8.40;;;;;;;17.73;58.15;96391.28;10400172;28;20037;-29
2023/12/22 22:02:30;;;;;;;17.80;7.97;;;;;;;17.71;58.02;96416.59;10401843;28;20362;-29
2023/12/22 22:07:30;;;;;;;18.37;7.97;;;;;;;17.70;58.02;96416.59;10405070;28;20034;-29
2023/12/22 22:12:30;;;;;;;22.00;7.90;;;;;;;17.69;58.46;96422.50;10403082;28;20025;-30
2023/12/22 22:17:31;;;;;;;26.23;7.37;;;;;;;17.68;58.17;96423.34;10404463;28;20519;-29
2023/12/22 22:22:31;;;;;;;16.00;7.77;;;;;;;17.54;58.09;96410.72;10404290;28;20498;-30
2023/12/22 22:27:32;;;;;;;17.53;7.63;;;;;;;17.69;58.12;96427.56;10401384;28;20488;-29
2023/12/22 22:32:32;;;;;;;16.40;7.45;;;;;;;17.69;58.08;96425.91;10403065;28;20143;-29
2023/12/22 22:37:33;;;;;;;17.40;7.38;;;;;;;17.71;58.09;96433.47;10404626;28;20037;-29
2023/12/22 22:42:33;;;;;;;17.50;6.73;;;;;;;17.69;58.48;96435.16;10400504;28;20079;-30
2023/12/22 22:47:33;;;;;;;12.07;6.00;;;;;;;17.68;58.01;96438.53;10394987;28;20029;-29
2023/12/22 22:52:34;;;;;;;13.18;6.53;;;;;;;17.69;58.03;96445.28;10399471;28;20836;-29
2023/12/22 22:57:34;;;;;;;13.53;6.37;;;;;;;17.70;58.03;96447.84;10399006;28;20045;-29
2023/12/22 23:02:34;;;;;;;15.33;7.07;;;;;;;17.68;58.48;96448.66;10397987;28;20052;-29
2023/12/22 23:07:35;;;;;;;14.13;7.23;;;;;;;17.65;58.33;96469.75;10399621;28;20055;-29
2023/12/22 23:12:35;;;;;;;13.50;6.80;;;;;;;17.70;58.09;96472.28;10395091;28;20041;-29